CEB1211 RPVP-RJTT
Flight info
| Callsign | CEB1211 |
|---|---|
| Flight time | N/A |
| Altitude | 37000 |
| Route | NOMYO1E NOMYO M646 MIA/N0472F380 A461 CAB/N0469F370 R597 VIGOR A590 GURAG/N0466F390 A590 BUBDO Y83 MOE V18 XAC |
| Aircraft | A339/H-SADE1E2E3GHIJ3J5M1P2RWXY/LB2D1 |
Departure
| Time | 2026-04-21 07:24 |
|---|---|
| Airport | Puerto Princesa International Airport / PAF Antonio Bautista Air Base (RPVP) |
Arrival
| Time | N/A |
|---|---|
| Airport | Tokyo Haneda International Airport (RJTT) |
| Time | Latitude | Longitude | Altitude | Speed | Heading |
|---|---|---|---|---|---|
| 2026-04-21 07:00 | 9.74500 | 118.74997 | 83 ft | 0 kts | 3° |
| 2026-04-21 07:16 | 9.74492 | 118.74996 | 83 ft | 2 kts | 1° |
| 2026-04-21 07:16 | 9.74476 | 118.74996 | 83 ft | 2 kts | 2° |
| 2026-04-21 07:16 | 9.74461 | 118.74995 | 83 ft | 2 kts | 2° |
| 2026-04-21 07:17 | 9.74452 | 118.74995 | 83 ft | 2 kts | 1° |
| 2026-04-21 07:17 | 9.74437 | 118.74997 | 83 ft | 2 kts | 334° |
| 2026-04-21 07:17 | 9.74424 | 118.75006 | 83 ft | 2 kts | 312° |
| 2026-04-21 07:17 | 9.74415 | 118.75019 | 83 ft | 2 kts | 289° |
| 2026-04-21 07:18 | 9.74412 | 118.75030 | 83 ft | 0 kts | 273° |
| 2026-04-21 07:18 | 9.74412 | 118.75034 | 83 ft | 0 kts | 272° |
| 2026-04-21 07:21 | 9.74413 | 118.75030 | 83 ft | 1 kts | 272° |
| 2026-04-21 07:21 | 9.74414 | 118.75005 | 83 ft | 5 kts | 273° |
| 2026-04-21 07:21 | 9.74416 | 118.74952 | 83 ft | 8 kts | 273° |
| 2026-04-21 07:21 | 9.74420 | 118.74885 | 83 ft | 10 kts | 273° |
| 2026-04-21 07:22 | 9.74423 | 118.74808 | 83 ft | 11 kts | 272° |
| 2026-04-21 07:22 | 9.74414 | 118.74728 | 83 ft | 11 kts | 231° |
| 2026-04-21 07:22 | 9.74336 | 118.74706 | 83 ft | 12 kts | 183° |
| 2026-04-21 07:22 | 9.74272 | 118.74710 | 83 ft | 4 kts | 162° |
| 2026-04-21 07:23 | 9.74259 | 118.74734 | 83 ft | 4 kts | 94° |
| 2026-04-21 07:23 | 9.74258 | 118.74744 | 83 ft | 0 kts | 95° |
| 2026-04-21 07:23 | 9.74254 | 118.74799 | 83 ft | 29 kts | 95° |
| 2026-04-21 07:23 | 9.74234 | 118.75227 | 83 ft | 89 kts | 92° |
| 2026-04-21 07:24 | 9.74198 | 118.76032 | 83 ft | 138 kts | 91° |
| 2026-04-21 07:24 | 9.74153 | 118.77110 | 349 ft | 156 kts | 92° |
| 2026-04-21 07:24 | 9.74182 | 118.78172 | 918 ft | 149 kts | 79° |
| 2026-04-21 07:24 | 9.74363 | 118.79193 | 1357 ft | 154 kts | 73° |
| 2026-04-21 07:25 | 9.75028 | 118.80059 | 1680 ft | 168 kts | 25° |
| 2026-04-21 07:25 | 9.76180 | 118.80370 | 1974 ft | 176 kts | 12° |
| 2026-04-21 07:25 | 9.77441 | 118.80574 | 2193 ft | 188 kts | 13° |
| 2026-04-21 07:25 | 9.78756 | 118.80821 | 2424 ft | 200 kts | 14° |
| 2026-04-21 07:26 | 9.80177 | 118.81121 | 2657 ft | 213 kts | 15° |
| 2026-04-21 07:26 | 9.81693 | 118.81464 | 2908 ft | 227 kts | 15° |
| 2026-04-21 07:26 | 9.83305 | 118.81836 | 3228 ft | 240 kts | 15° |
| 2026-04-21 07:26 | 9.84976 | 118.82228 | 3759 ft | 244 kts | 16° |
| 2026-04-21 07:27 | 9.86673 | 118.82628 | 4358 ft | 246 kts | 15° |
| 2026-04-21 07:27 | 9.88368 | 118.83011 | 4926 ft | 249 kts | 13° |
| 2026-04-21 07:27 | 9.90127 | 118.83212 | 5486 ft | 254 kts | 5° |
| 2026-04-21 07:27 | 9.91979 | 118.83213 | 5803 ft | 270 kts | 1° |
| 2026-04-21 07:28 | 9.93919 | 118.83157 | 6266 ft | 279 kts | 0° |
| 2026-04-21 07:28 | 9.95881 | 118.83089 | 6902 ft | 281 kts | 1° |
| 2026-04-21 07:28 | 9.97879 | 118.83024 | 7507 ft | 283 kts | 0° |
| 2026-04-21 07:28 | 9.99899 | 118.82958 | 8095 ft | 285 kts | 0° |
| 2026-04-21 07:29 | 10.01851 | 118.82898 | 8636 ft | 288 kts | 0° |
| 2026-04-21 07:29 | 10.03876 | 118.82837 | 9197 ft | 290 kts | 0° |
| 2026-04-21 07:29 | 10.05948 | 118.82775 | 9742 ft | 292 kts | 0° |
| 2026-04-21 07:29 | 10.08011 | 118.82714 | 10244 ft | 297 kts | 0° |
| 2026-04-21 07:30 | 10.10162 | 118.82651 | 10497 ft | 310 kts | 0° |
| 2026-04-21 07:30 | 10.12055 | 118.82606 | 10698 ft | 321 kts | 3° |
| 2026-04-21 07:30 | 10.14284 | 118.83061 | 10909 ft | 331 kts | 26° |
| 2026-04-21 07:30 | 10.16236 | 118.84446 | 11139 ft | 342 kts | 47° |
| 2026-04-21 07:31 | 10.17860 | 118.86274 | 11533 ft | 349 kts | 49° |
| 2026-04-21 07:31 | 10.19533 | 118.88146 | 12061 ft | 352 kts | 48° |
| 2026-04-21 07:31 | 10.21218 | 118.90015 | 12554 ft | 355 kts | 48° |
| 2026-04-21 07:31 | 10.22884 | 118.91854 | 13032 ft | 359 kts | 47° |
| 2026-04-21 07:32 | 10.24593 | 118.93735 | 13517 ft | 362 kts | 47° |
| 2026-04-21 07:32 | 10.26313 | 118.95627 | 13996 ft | 365 kts | 48° |
| 2026-04-21 07:32 | 10.28048 | 118.97536 | 14449 ft | 369 kts | 48° |
| 2026-04-21 07:32 | 10.29776 | 118.99436 | 14891 ft | 372 kts | 48° |
| 2026-04-21 07:33 | 10.31549 | 119.01387 | 15339 ft | 375 kts | 48° |
| 2026-04-21 07:33 | 10.33371 | 119.03314 | 15776 ft | 379 kts | 43° |
| 2026-04-21 07:33 | 10.35441 | 119.04975 | 16200 ft | 383 kts | 34° |
| 2026-04-21 07:33 | 10.37748 | 119.06316 | 16617 ft | 386 kts | 26° |
| 2026-04-21 07:34 | 10.40232 | 119.07486 | 17031 ft | 390 kts | 25° |
| 2026-04-21 07:34 | 10.42723 | 119.08621 | 17427 ft | 394 kts | 25° |
| 2026-04-21 07:34 | 10.45235 | 119.09763 | 17818 ft | 398 kts | 25° |
| 2026-04-21 07:34 | 10.47769 | 119.10918 | 18204 ft | 401 kts | 25° |
| 2026-04-21 07:35 | 10.50352 | 119.12099 | 18578 ft | 406 kts | 25° |
| 2026-04-21 07:35 | 10.52922 | 119.13279 | 18971 ft | 409 kts | 25° |
| 2026-04-21 07:35 | 10.55541 | 119.14483 | 19365 ft | 412 kts | 25° |
| 2026-04-21 07:35 | 10.58156 | 119.15686 | 19748 ft | 415 kts | 25° |
| 2026-04-21 07:36 | 10.60781 | 119.16894 | 20111 ft | 418 kts | 25° |
| 2026-04-21 07:36 | 10.63438 | 119.18117 | 20475 ft | 421 kts | 25° |
| 2026-04-21 07:36 | 10.66138 | 119.19362 | 20819 ft | 424 kts | 25° |
| 2026-04-21 07:36 | 10.68830 | 119.20602 | 21168 ft | 427 kts | 25° |
| 2026-04-21 07:37 | 10.71567 | 119.21864 | 21506 ft | 430 kts | 25° |
| 2026-04-21 07:37 | 10.74295 | 119.23122 | 21830 ft | 433 kts | 25° |
| 2026-04-21 07:37 | 10.77059 | 119.24397 | 22152 ft | 436 kts | 25° |
| 2026-04-21 07:37 | 10.79824 | 119.25673 | 22487 ft | 438 kts | 25° |
| 2026-04-21 07:38 | 10.82605 | 119.26957 | 22838 ft | 440 kts | 25° |
| 2026-04-21 07:38 | 10.85414 | 119.28253 | 23195 ft | 442 kts | 25° |
| 2026-04-21 07:38 | 10.88222 | 119.29550 | 23541 ft | 445 kts | 24° |
| 2026-04-21 07:38 | 10.91058 | 119.30859 | 23892 ft | 447 kts | 24° |
| 2026-04-21 07:39 | 10.93873 | 119.32159 | 24226 ft | 449 kts | 24° |
| 2026-04-21 07:39 | 10.96756 | 119.33490 | 24564 ft | 451 kts | 24° |
| 2026-04-21 07:39 | 10.99597 | 119.34803 | 24896 ft | 453 kts | 24° |
| 2026-04-21 07:39 | 11.02474 | 119.36132 | 25246 ft | 454 kts | 24° |
| 2026-04-21 07:40 | 11.05385 | 119.37477 | 25595 ft | 456 kts | 24° |
| 2026-04-21 07:40 | 11.08278 | 119.38815 | 25927 ft | 458 kts | 24° |
| 2026-04-21 07:40 | 11.11207 | 119.40170 | 26241 ft | 459 kts | 24° |
| 2026-04-21 07:40 | 11.14128 | 119.41521 | 26562 ft | 461 kts | 24° |
| 2026-04-21 07:41 | 11.17089 | 119.42891 | 26890 ft | 463 kts | 24° |
| 2026-04-21 07:41 | 11.20024 | 119.44249 | 27189 ft | 464 kts | 24° |
| 2026-04-21 07:41 | 11.22960 | 119.45608 | 27477 ft | 466 kts | 24° |
| 2026-04-21 07:41 | 11.25921 | 119.46978 | 27770 ft | 468 kts | 24° |
| 2026-04-21 07:42 | 11.28914 | 119.48364 | 28076 ft | 470 kts | 24° |
| 2026-04-21 07:42 | 11.31896 | 119.49744 | 28385 ft | 471 kts | 24° |
| 2026-04-21 07:42 | 11.34892 | 119.51132 | 28669 ft | 473 kts | 24° |
| 2026-04-21 07:42 | 11.37890 | 119.52522 | 28940 ft | 475 kts | 24° |
| 2026-04-21 07:43 | 11.40893 | 119.53914 | 29214 ft | 477 kts | 24° |
| 2026-04-21 07:43 | 11.43961 | 119.55336 | 29489 ft | 479 kts | 24° |
| 2026-04-21 07:43 | 11.47009 | 119.56750 | 29763 ft | 480 kts | 24° |
| 2026-04-21 07:43 | 11.50048 | 119.58160 | 30024 ft | 482 kts | 24° |
| 2026-04-21 07:44 | 11.53119 | 119.59584 | 30292 ft | 484 kts | 24° |
| 2026-04-21 07:44 | 11.56167 | 119.60998 | 30568 ft | 485 kts | 24° |
| 2026-04-21 07:44 | 11.59240 | 119.62425 | 30841 ft | 486 kts | 24° |
| 2026-04-21 07:44 | 11.62318 | 119.63855 | 31190 ft | 485 kts | 24° |
| 2026-04-21 07:45 | 11.65422 | 119.65297 | 31586 ft | 484 kts | 24° |
| 2026-04-21 07:45 | 11.68300 | 119.66634 | 31932 ft | 482 kts | 24° |
| 2026-04-21 07:45 | 11.71346 | 119.68053 | 32271 ft | 482 kts | 24° |
| 2026-04-21 07:45 | 11.74396 | 119.69492 | 32612 ft | 481 kts | 24° |
| 2026-04-21 07:46 | 11.77444 | 119.70940 | 32975 ft | 480 kts | 24° |
| 2026-04-21 07:46 | 11.80466 | 119.72376 | 33333 ft | 479 kts | 24° |
| 2026-04-21 07:46 | 11.83469 | 119.73804 | 33688 ft | 478 kts | 24° |
| 2026-04-21 07:46 | 11.86493 | 119.75241 | 34049 ft | 478 kts | 24° |
| 2026-04-21 07:47 | 11.89520 | 119.76678 | 34394 ft | 477 kts | 24° |
| 2026-04-21 07:47 | 11.92537 | 119.78111 | 34738 ft | 476 kts | 24° |
| 2026-04-21 07:47 | 11.95524 | 119.79530 | 35064 ft | 475 kts | 24° |
| 2026-04-21 07:47 | 11.98522 | 119.80953 | 35321 ft | 476 kts | 24° |
| 2026-04-21 07:48 | 12.01556 | 119.82394 | 35508 ft | 477 kts | 24° |
| 2026-04-21 07:48 | 12.04556 | 119.83820 | 35696 ft | 479 kts | 24° |
| 2026-04-21 07:48 | 12.07589 | 119.85262 | 35895 ft | 480 kts | 24° |
| 2026-04-21 07:48 | 12.10632 | 119.86709 | 36081 ft | 482 kts | 24° |
| 2026-04-21 07:49 | 12.13753 | 119.88193 | 36274 ft | 483 kts | 24° |
| 2026-04-21 07:49 | 12.16795 | 119.89640 | 36459 ft | 484 kts | 24° |
| 2026-04-21 07:49 | 12.19857 | 119.91097 | 36648 ft | 485 kts | 24° |
| 2026-04-21 07:49 | 12.22941 | 119.92566 | 36828 ft | 486 kts | 24° |
| 2026-04-21 07:50 | 12.29085 | 119.95491 | 36869 ft | 488 kts | 24° |
| 2026-04-21 07:50 | 12.35223 | 119.98415 | 36870 ft | 487 kts | 24° |
| 2026-04-21 07:51 | 12.41380 | 120.01350 | 36870 ft | 486 kts | 24° |
| 2026-04-21 07:51 | 12.47530 | 120.04282 | 36867 ft | 486 kts | 24° |
| 2026-04-21 07:52 | 12.53674 | 120.07214 | 36865 ft | 486 kts | 24° |
| 2026-04-21 07:52 | 12.59822 | 120.10149 | 36861 ft | 486 kts | 24° |
| 2026-04-21 07:53 | 12.65979 | 120.13090 | 36860 ft | 486 kts | 24° |
| 2026-04-21 07:53 | 12.72083 | 120.16007 | 36860 ft | 486 kts | 24° |
| 2026-04-21 07:54 | 12.78236 | 120.18950 | 36864 ft | 486 kts | 24° |
| 2026-04-21 07:54 | 12.84395 | 120.21897 | 36860 ft | 486 kts | 24° |
| 2026-04-21 07:55 | 12.90514 | 120.24826 | 36858 ft | 486 kts | 24° |
| 2026-04-21 07:55 | 12.96648 | 120.27764 | 36853 ft | 485 kts | 24° |
| 2026-04-21 07:56 | 13.02773 | 120.30699 | 36854 ft | 485 kts | 24° |
| 2026-04-21 07:56 | 13.08874 | 120.33624 | 36855 ft | 484 kts | 24° |
| 2026-04-21 07:57 | 13.14273 | 120.36214 | 36855 ft | 485 kts | 24° |
| 2026-04-21 07:57 | 13.19719 | 120.38828 | 36861 ft | 485 kts | 24° |
| 2026-04-21 07:58 | 13.24850 | 120.41292 | 36862 ft | 485 kts | 24° |
| 2026-04-21 07:58 | 13.31037 | 120.44265 | 36873 ft | 485 kts | 24° |
| 2026-04-21 07:59 | 13.37174 | 120.47214 | 36886 ft | 485 kts | 24° |
| 2026-04-21 07:59 | 13.43263 | 120.50144 | 36903 ft | 484 kts | 24° |
| 2026-04-21 08:00 | 13.49387 | 120.53091 | 36907 ft | 484 kts | 24° |
| 2026-04-21 08:00 | 13.55516 | 120.56044 | 36907 ft | 484 kts | 24° |
| 2026-04-21 08:01 | 13.61592 | 120.58971 | 36892 ft | 484 kts | 24° |
| 2026-04-21 08:02 | 13.70787 | 120.63403 | 36869 ft | 484 kts | 24° |
| 2026-04-21 08:02 | 13.76896 | 120.66351 | 36855 ft | 484 kts | 24° |
| 2026-04-21 08:03 | 13.82999 | 120.69299 | 36848 ft | 484 kts | 24° |
| 2026-04-21 08:03 | 13.89088 | 120.72240 | 36856 ft | 484 kts | 24° |
| 2026-04-21 08:04 | 13.95226 | 120.75206 | 36863 ft | 483 kts | 24° |
| 2026-04-21 08:04 | 14.01300 | 120.78143 | 36864 ft | 483 kts | 24° |
| 2026-04-21 08:05 | 14.07416 | 120.81104 | 36866 ft | 483 kts | 24° |
| 2026-04-21 08:05 | 14.13571 | 120.84084 | 36867 ft | 483 kts | 24° |
| 2026-04-21 08:06 | 14.19740 | 120.87073 | 36871 ft | 483 kts | 24° |
| 2026-04-21 08:06 | 14.25835 | 120.90028 | 36876 ft | 484 kts | 24° |
| 2026-04-21 08:07 | 14.31936 | 120.92987 | 36875 ft | 485 kts | 24° |
| 2026-04-21 08:07 | 14.38106 | 120.95982 | 36872 ft | 485 kts | 24° |
| 2026-04-21 08:08 | 14.44280 | 120.98850 | 36870 ft | 483 kts | 19° |
| 2026-04-21 08:08 | 14.50723 | 121.00921 | 36867 ft | 481 kts | 11° |
| 2026-04-21 08:09 | 14.57319 | 121.02029 | 36863 ft | 478 kts | 3° |
| 2026-04-21 08:09 | 14.63970 | 121.02254 | 36865 ft | 477 kts | 358° |
| 2026-04-21 08:10 | 14.70662 | 121.02257 | 36867 ft | 477 kts | 358° |
| 2026-04-21 08:10 | 14.77326 | 121.02258 | 36871 ft | 477 kts | 358° |
| 2026-04-21 08:11 | 14.83956 | 121.02270 | 36876 ft | 478 kts | 358° |
| 2026-04-21 08:11 | 14.90626 | 121.02284 | 36878 ft | 477 kts | 358° |
| 2026-04-21 08:12 | 14.97281 | 121.02300 | 36880 ft | 477 kts | 358° |
| 2026-04-21 08:12 | 15.03948 | 121.02317 | 36884 ft | 477 kts | 358° |
| 2026-04-21 08:13 | 15.10644 | 121.02334 | 36883 ft | 477 kts | 358° |
| 2026-04-21 08:13 | 15.17074 | 121.02349 | 36884 ft | 477 kts | 357° |
| 2026-04-21 08:14 | 15.23765 | 121.02365 | 36883 ft | 477 kts | 357° |
| 2026-04-21 08:14 | 15.30453 | 121.02380 | 36883 ft | 477 kts | 357° |
| 2026-04-21 08:15 | 15.37139 | 121.02420 | 36872 ft | 477 kts | 0° |
| 2026-04-21 08:15 | 15.43670 | 121.03846 | 36869 ft | 485 kts | 19° |
| 2026-04-21 08:16 | 15.49538 | 121.07343 | 36877 ft | 490 kts | 38° |
| 2026-04-21 08:16 | 15.54114 | 121.12615 | 36886 ft | 494 kts | 57° |
| 2026-04-21 08:17 | 15.57608 | 121.18731 | 36903 ft | 495 kts | 59° |
| 2026-04-21 08:17 | 15.61058 | 121.24932 | 36917 ft | 495 kts | 59° |
| 2026-04-21 08:18 | 15.64517 | 121.31091 | 36926 ft | 495 kts | 59° |
| 2026-04-21 08:18 | 15.68009 | 121.37283 | 36926 ft | 495 kts | 59° |
| 2026-04-21 08:19 | 15.71479 | 121.43424 | 36920 ft | 496 kts | 59° |
| 2026-04-21 08:19 | 15.74984 | 121.49631 | 36906 ft | 496 kts | 59° |
| 2026-04-21 08:20 | 15.78484 | 121.55836 | 36911 ft | 496 kts | 59° |
| 2026-04-21 08:20 | 15.81963 | 121.62008 | 36921 ft | 496 kts | 58° |
| 2026-04-21 08:21 | 15.85451 | 121.68201 | 36922 ft | 496 kts | 59° |
| 2026-04-21 08:21 | 15.88936 | 121.74394 | 36912 ft | 496 kts | 59° |
| 2026-04-21 08:22 | 15.92436 | 121.80617 | 36902 ft | 497 kts | 59° |
| 2026-04-21 08:22 | 15.95891 | 121.86765 | 36903 ft | 497 kts | 59° |
| 2026-04-21 08:23 | 15.99375 | 121.92971 | 36902 ft | 496 kts | 59° |
| 2026-04-21 08:23 | 16.02868 | 121.99202 | 36907 ft | 497 kts | 59° |
| 2026-04-21 08:24 | 16.06347 | 122.05410 | 36908 ft | 497 kts | 59° |
| 2026-04-21 08:24 | 16.09827 | 122.11628 | 36911 ft | 498 kts | 59° |
| 2026-04-21 08:25 | 16.13291 | 122.17819 | 36914 ft | 498 kts | 59° |
| 2026-04-21 08:25 | 16.16771 | 122.24044 | 36915 ft | 497 kts | 59° |
| 2026-04-21 08:26 | 16.20238 | 122.30255 | 36915 ft | 498 kts | 59° |
| 2026-04-21 08:26 | 16.23709 | 122.36475 | 36914 ft | 498 kts | 59° |
| 2026-04-21 08:27 | 16.27193 | 122.42724 | 36914 ft | 498 kts | 59° |
| 2026-04-21 08:27 | 16.30670 | 122.48967 | 36915 ft | 498 kts | 59° |
| 2026-04-21 08:28 | 16.34136 | 122.55196 | 36914 ft | 499 kts | 59° |
| 2026-04-21 08:28 | 16.37611 | 122.61448 | 36915 ft | 499 kts | 59° |
| 2026-04-21 08:29 | 16.41098 | 122.67723 | 36916 ft | 499 kts | 59° |
| 2026-04-21 08:29 | 16.44556 | 122.73955 | 36918 ft | 499 kts | 59° |
| 2026-04-21 08:30 | 16.48033 | 122.80225 | 36916 ft | 499 kts | 59° |
| 2026-04-21 08:30 | 16.51495 | 122.86475 | 36918 ft | 499 kts | 59° |
| 2026-04-21 08:31 | 16.54949 | 122.92715 | 36921 ft | 499 kts | 59° |
| 2026-04-21 08:31 | 16.58419 | 122.98989 | 36922 ft | 500 kts | 59° |
| 2026-04-21 08:32 | 16.61885 | 123.05262 | 36924 ft | 500 kts | 59° |
| 2026-04-21 08:32 | 16.65357 | 123.11555 | 36924 ft | 500 kts | 59° |
| 2026-04-21 08:33 | 16.68829 | 123.17850 | 36925 ft | 500 kts | 59° |
| 2026-04-21 08:33 | 16.72271 | 123.24098 | 36924 ft | 500 kts | 59° |
| 2026-04-21 08:34 | 16.75738 | 123.30392 | 36925 ft | 500 kts | 59° |
| 2026-04-21 08:34 | 16.79197 | 123.36682 | 36926 ft | 501 kts | 59° |
| 2026-04-21 08:35 | 16.82669 | 123.43002 | 36925 ft | 501 kts | 59° |
| 2026-04-21 08:35 | 16.86116 | 123.49284 | 36926 ft | 501 kts | 59° |
| 2026-04-21 08:36 | 16.89576 | 123.55595 | 36925 ft | 501 kts | 59° |
| 2026-04-21 08:36 | 16.93038 | 123.61914 | 36927 ft | 501 kts | 59° |
| 2026-04-21 08:37 | 16.96501 | 123.68243 | 36923 ft | 501 kts | 59° |
| 2026-04-21 08:37 | 16.99949 | 123.74547 | 36927 ft | 501 kts | 59° |
| 2026-04-21 08:38 | 17.03397 | 123.80856 | 36928 ft | 501 kts | 59° |
| 2026-04-21 08:38 | 17.06866 | 123.87211 | 36927 ft | 502 kts | 59° |
| 2026-04-21 08:39 | 17.10298 | 123.93508 | 36926 ft | 503 kts | 59° |
| 2026-04-21 08:39 | 17.13760 | 123.99863 | 36926 ft | 503 kts | 59° |
| 2026-04-21 08:40 | 17.17228 | 124.06236 | 36924 ft | 503 kts | 59° |
| 2026-04-21 08:40 | 17.20671 | 124.12570 | 36916 ft | 503 kts | 59° |
| 2026-04-21 08:41 | 17.24112 | 124.18903 | 36916 ft | 503 kts | 59° |
| 2026-04-21 08:41 | 17.27582 | 124.25296 | 36923 ft | 502 kts | 59° |
| 2026-04-21 08:42 | 17.31012 | 124.31623 | 36925 ft | 503 kts | 59° |
| 2026-04-21 08:42 | 17.34689 | 124.37830 | 36925 ft | 502 kts | 53° |
| 2026-04-21 08:43 | 17.39102 | 124.43493 | 36925 ft | 500 kts | 44° |
| 2026-04-21 08:43 | 17.44173 | 124.48460 | 36926 ft | 497 kts | 36° |
| 2026-04-21 08:44 | 17.49669 | 124.52905 | 36926 ft | 496 kts | 34° |
| 2026-04-21 08:44 | 17.55142 | 124.57260 | 36926 ft | 496 kts | 34° |
| 2026-04-21 08:45 | 17.60607 | 124.61631 | 36929 ft | 496 kts | 34° |
| 2026-04-21 08:45 | 17.66131 | 124.66065 | 36931 ft | 496 kts | 34° |
| 2026-04-21 08:46 | 17.71613 | 124.70474 | 36938 ft | 497 kts | 34° |
| 2026-04-21 08:46 | 17.77098 | 124.74892 | 36944 ft | 497 kts | 34° |
| 2026-04-21 08:47 | 17.82545 | 124.79282 | 36944 ft | 496 kts | 34° |
| 2026-04-21 08:47 | 17.88018 | 124.83697 | 36945 ft | 496 kts | 34° |
| 2026-04-21 08:48 | 17.93510 | 124.88131 | 36943 ft | 496 kts | 34° |
| 2026-04-21 08:48 | 17.98978 | 124.92548 | 36946 ft | 496 kts | 34° |
| 2026-04-21 08:49 | 18.04457 | 124.96976 | 36950 ft | 497 kts | 34° |
| 2026-04-21 08:49 | 18.09913 | 125.01389 | 36949 ft | 497 kts | 34° |
| 2026-04-21 08:50 | 18.15413 | 125.05841 | 36943 ft | 497 kts | 34° |
| 2026-04-21 08:50 | 18.20878 | 125.10272 | 36950 ft | 497 kts | 34° |
| 2026-04-21 08:51 | 18.26343 | 125.14703 | 36945 ft | 496 kts | 34° |
| 2026-04-21 08:51 | 18.31808 | 125.19135 | 36951 ft | 496 kts | 34° |
| 2026-04-21 08:52 | 18.37303 | 125.23597 | 36951 ft | 496 kts | 34° |
| 2026-04-21 08:52 | 18.42739 | 125.28016 | 36947 ft | 496 kts | 34° |
| 2026-04-21 08:53 | 18.48232 | 125.32486 | 36951 ft | 497 kts | 34° |
| 2026-04-21 08:53 | 18.53680 | 125.36923 | 36947 ft | 497 kts | 34° |
| 2026-04-21 08:54 | 18.59172 | 125.41402 | 36948 ft | 497 kts | 34° |
| 2026-04-21 08:54 | 18.64639 | 125.45860 | 36948 ft | 497 kts | 34° |
| 2026-04-21 08:55 | 18.70100 | 125.50317 | 36949 ft | 497 kts | 34° |
| 2026-04-21 08:55 | 18.75558 | 125.54778 | 36948 ft | 496 kts | 34° |
| 2026-04-21 08:56 | 18.81028 | 125.59252 | 36947 ft | 496 kts | 34° |
| 2026-04-21 08:56 | 18.86447 | 125.63688 | 36948 ft | 496 kts | 34° |
| 2026-04-21 08:57 | 18.91921 | 125.68171 | 36947 ft | 496 kts | 34° |
| 2026-04-21 08:57 | 18.97387 | 125.72653 | 36950 ft | 496 kts | 35° |
| 2026-04-21 08:58 | 19.02821 | 125.77114 | 36946 ft | 496 kts | 34° |
| 2026-04-21 08:58 | 19.08280 | 125.81597 | 36951 ft | 496 kts | 34° |
| 2026-04-21 08:59 | 19.13722 | 125.86073 | 36953 ft | 497 kts | 34° |
| 2026-04-21 08:59 | 19.19194 | 125.90574 | 36952 ft | 497 kts | 34° |
| 2026-04-21 09:00 | 19.24664 | 125.95078 | 36955 ft | 498 kts | 34° |
| 2026-04-21 09:00 | 19.30121 | 125.99574 | 36948 ft | 498 kts | 34° |
| 2026-04-21 09:01 | 19.35602 | 126.04097 | 36958 ft | 497 kts | 34° |
| 2026-04-21 09:01 | 19.41024 | 126.08572 | 36952 ft | 497 kts | 34° |
| 2026-04-21 09:02 | 19.46476 | 126.13077 | 36951 ft | 497 kts | 34° |
| 2026-04-21 09:02 | 19.51941 | 126.17599 | 36960 ft | 497 kts | 34° |
| 2026-04-21 09:03 | 19.60124 | 126.24374 | 36967 ft | 499 kts | 34° |
| 2026-04-21 09:03 | 19.65594 | 126.28907 | 36974 ft | 499 kts | 34° |
| 2026-04-21 09:04 | 19.71064 | 126.33445 | 36967 ft | 500 kts | 34° |
| 2026-04-21 09:04 | 19.76527 | 126.37982 | 36974 ft | 500 kts | 34° |
| 2026-04-21 09:05 | 19.82003 | 126.42532 | 36972 ft | 500 kts | 34° |
| 2026-04-21 09:05 | 19.87515 | 126.47118 | 36972 ft | 500 kts | 34° |
| 2026-04-21 09:06 | 19.92946 | 126.51641 | 36977 ft | 500 kts | 34° |
| 2026-04-21 09:06 | 19.98431 | 126.56210 | 36971 ft | 499 kts | 34° |
| 2026-04-21 09:07 | 20.03772 | 126.60664 | 36966 ft | 498 kts | 34° |
| 2026-04-21 09:07 | 20.09231 | 126.65224 | 36968 ft | 498 kts | 34° |
| 2026-04-21 09:08 | 20.14556 | 126.69674 | 36978 ft | 498 kts | 34° |
| 2026-04-21 09:08 | 20.19971 | 126.74204 | 36985 ft | 498 kts | 34° |
| 2026-04-21 09:09 | 20.25423 | 126.78768 | 36987 ft | 499 kts | 34° |
| 2026-04-21 09:09 | 20.30919 | 126.83369 | 36994 ft | 499 kts | 34° |
| 2026-04-21 09:10 | 20.36359 | 126.87931 | 36992 ft | 499 kts | 35° |
| 2026-04-21 09:10 | 20.41815 | 126.92513 | 36993 ft | 499 kts | 34° |
| 2026-04-21 09:11 | 20.47240 | 126.97074 | 36999 ft | 499 kts | 34° |
| 2026-04-21 09:11 | 20.52712 | 127.01674 | 36993 ft | 498 kts | 34° |
| 2026-04-21 09:12 | 20.58130 | 127.06236 | 36995 ft | 498 kts | 34° |
| 2026-04-21 09:12 | 20.63585 | 127.10831 | 36995 ft | 498 kts | 34° |
| 2026-04-21 09:13 | 20.69028 | 127.15421 | 36993 ft | 499 kts | 34° |
| 2026-04-21 09:13 | 20.74465 | 127.20013 | 36993 ft | 499 kts | 34° |
| 2026-04-21 09:14 | 20.79913 | 127.24616 | 36989 ft | 500 kts | 34° |
| 2026-04-21 09:14 | 20.85374 | 127.29235 | 36983 ft | 500 kts | 34° |
| 2026-04-21 09:15 | 20.90809 | 127.33836 | 36987 ft | 500 kts | 34° |
| 2026-04-21 09:15 | 20.96277 | 127.38469 | 36986 ft | 499 kts | 34° |
| 2026-04-21 09:16 | 21.01708 | 127.43051 | 36987 ft | 499 kts | 33° |
| 2026-04-21 09:16 | 21.07239 | 127.47565 | 36988 ft | 498 kts | 33° |
| 2026-04-21 09:17 | 21.12758 | 127.52055 | 36989 ft | 499 kts | 33° |
| 2026-04-21 09:17 | 21.18266 | 127.56553 | 36987 ft | 499 kts | 33° |
| 2026-04-21 09:18 | 21.23803 | 127.61083 | 36987 ft | 499 kts | 33° |
| 2026-04-21 09:18 | 21.29294 | 127.65583 | 36986 ft | 499 kts | 33° |
| 2026-04-21 09:19 | 21.34794 | 127.70094 | 36987 ft | 499 kts | 33° |
| 2026-04-21 09:19 | 21.40310 | 127.74622 | 36987 ft | 500 kts | 33° |
| 2026-04-21 09:20 | 21.45834 | 127.79162 | 36987 ft | 500 kts | 33° |
| 2026-04-21 09:20 | 21.51375 | 127.83720 | 36988 ft | 500 kts | 33° |
| 2026-04-21 09:21 | 21.56865 | 127.88242 | 36989 ft | 500 kts | 33° |
| 2026-04-21 09:21 | 21.62411 | 127.92812 | 36987 ft | 500 kts | 33° |
| 2026-04-21 09:22 | 21.67919 | 127.97356 | 36987 ft | 499 kts | 33° |
| 2026-04-21 09:22 | 21.73423 | 128.01903 | 36987 ft | 500 kts | 33° |
| 2026-04-21 09:23 | 21.78930 | 128.06456 | 36990 ft | 499 kts | 33° |
| 2026-04-21 09:23 | 21.84430 | 128.11009 | 36994 ft | 499 kts | 33° |
| 2026-04-21 09:24 | 21.89916 | 128.15553 | 37003 ft | 500 kts | 33° |
| 2026-04-21 09:24 | 21.95450 | 128.20142 | 37008 ft | 500 kts | 33° |
| 2026-04-21 09:25 | 22.00931 | 128.24692 | 37011 ft | 499 kts | 33° |
| 2026-04-21 09:25 | 22.06464 | 128.29288 | 37014 ft | 499 kts | 33° |
| 2026-04-21 09:26 | 22.11962 | 128.33861 | 37010 ft | 500 kts | 33° |
| 2026-04-21 09:26 | 22.17448 | 128.38428 | 37012 ft | 501 kts | 33° |
| 2026-04-21 09:27 | 22.22990 | 128.43047 | 37012 ft | 501 kts | 33° |
| 2026-04-21 09:27 | 22.28491 | 128.47636 | 37013 ft | 501 kts | 33° |
| 2026-04-21 09:28 | 22.34009 | 128.52241 | 37011 ft | 501 kts | 33° |
| 2026-04-21 09:28 | 22.39513 | 128.56844 | 37012 ft | 500 kts | 33° |
| 2026-04-21 09:29 | 22.45020 | 128.61453 | 37009 ft | 501 kts | 33° |
| 2026-04-21 09:29 | 22.50558 | 128.66092 | 37007 ft | 501 kts | 34° |
| 2026-04-21 09:30 | 22.56043 | 128.70692 | 37009 ft | 500 kts | 34° |
| 2026-04-21 09:30 | 22.61537 | 128.75305 | 37010 ft | 501 kts | 34° |
| 2026-04-21 09:31 | 22.67023 | 128.79913 | 37012 ft | 501 kts | 34° |
| 2026-04-21 09:31 | 22.72559 | 128.84570 | 37012 ft | 501 kts | 34° |
| 2026-04-21 09:32 | 22.78042 | 128.89186 | 37010 ft | 501 kts | 34° |
| 2026-04-21 09:32 | 22.83534 | 128.93816 | 37008 ft | 502 kts | 34° |
| 2026-04-21 09:33 | 22.89066 | 128.98485 | 37010 ft | 501 kts | 34° |
| 2026-04-21 09:33 | 22.94555 | 129.03120 | 37009 ft | 502 kts | 33° |
| 2026-04-21 09:34 | 23.00087 | 129.07787 | 37007 ft | 502 kts | 32° |
| 2026-04-21 09:34 | 23.05748 | 129.12166 | 37011 ft | 500 kts | 31° |
| 2026-04-21 09:35 | 23.11459 | 129.16493 | 37008 ft | 500 kts | 31° |
| 2026-04-21 09:35 | 23.17161 | 129.20827 | 37008 ft | 500 kts | 31° |
| 2026-04-21 09:36 | 23.22851 | 129.25162 | 37010 ft | 501 kts | 31° |
| 2026-04-21 09:36 | 23.28557 | 129.29515 | 37010 ft | 501 kts | 31° |
| 2026-04-21 09:37 | 23.34241 | 129.33858 | 37011 ft | 501 kts | 31° |
| 2026-04-21 09:37 | 23.39962 | 129.38234 | 37008 ft | 501 kts | 31° |
| 2026-04-21 09:38 | 23.45660 | 129.42595 | 37009 ft | 501 kts | 31° |
| 2026-04-21 09:38 | 23.51372 | 129.46974 | 37010 ft | 501 kts | 30° |
| 2026-04-21 09:39 | 23.57057 | 129.51337 | 37008 ft | 500 kts | 30° |
| 2026-04-21 09:39 | 23.62745 | 129.55704 | 37010 ft | 501 kts | 31° |
| 2026-04-21 09:40 | 23.68471 | 129.60106 | 37010 ft | 502 kts | 31° |
| 2026-04-21 09:40 | 23.74156 | 129.64482 | 37009 ft | 502 kts | 31° |
| 2026-04-21 09:41 | 23.79800 | 129.68832 | 37006 ft | 502 kts | 31° |
| 2026-04-21 09:41 | 23.85511 | 129.73239 | 37009 ft | 502 kts | 31° |
| 2026-04-21 09:42 | 23.91184 | 129.77620 | 37010 ft | 502 kts | 31° |
| 2026-04-21 09:42 | 23.96877 | 129.82022 | 37011 ft | 501 kts | 31° |
| 2026-04-21 09:43 | 24.02566 | 129.86423 | 37010 ft | 501 kts | 31° |
| 2026-04-21 09:43 | 24.08275 | 129.90846 | 37010 ft | 501 kts | 31° |
| 2026-04-21 09:44 | 24.13786 | 129.95122 | 37011 ft | 502 kts | 31° |
| 2026-04-21 09:44 | 24.19509 | 129.99567 | 37011 ft | 502 kts | 31° |
| 2026-04-21 09:45 | 24.25196 | 130.03986 | 37010 ft | 503 kts | 31° |
| 2026-04-21 09:45 | 24.30847 | 130.08386 | 37012 ft | 502 kts | 31° |
| 2026-04-21 09:46 | 24.33724 | 130.10626 | 37153 ft | 504 kts | 31° |
| 2026-04-21 09:46 | 24.36646 | 130.12895 | 37469 ft | 503 kts | 30° |
| 2026-04-21 09:46 | 24.39535 | 130.15086 | 37825 ft | 500 kts | 30° |
| 2026-04-21 09:46 | 24.42422 | 130.17253 | 38082 ft | 500 kts | 29° |
| 2026-04-21 09:47 | 24.45294 | 130.19402 | 38300 ft | 500 kts | 29° |
| 2026-04-21 09:47 | 24.48174 | 130.21562 | 38524 ft | 501 kts | 29° |
| 2026-04-21 09:47 | 24.51073 | 130.23741 | 38753 ft | 501 kts | 29° |
| 2026-04-21 09:47 | 24.53936 | 130.25894 | 38970 ft | 501 kts | 29° |
| 2026-04-21 09:48 | 24.59713 | 130.30244 | 39023 ft | 501 kts | 29° |
| 2026-04-21 09:48 | 24.65463 | 130.34587 | 39028 ft | 501 kts | 29° |
| 2026-04-21 09:49 | 24.71200 | 130.38924 | 39029 ft | 501 kts | 29° |
| 2026-04-21 09:49 | 24.76943 | 130.43269 | 39026 ft | 501 kts | 29° |
| 2026-04-21 09:50 | 24.80773 | 130.46170 | 39033 ft | 501 kts | 29° |
| 2026-04-21 09:50 | 24.88469 | 130.52006 | 39028 ft | 502 kts | 29° |
| 2026-04-21 09:51 | 24.94199 | 130.56361 | 39035 ft | 500 kts | 29° |
| 2026-04-21 09:51 | 24.99969 | 130.60750 | 39031 ft | 501 kts | 29° |
| 2026-04-21 09:52 | 25.05693 | 130.65106 | 39033 ft | 501 kts | 30° |
| 2026-04-21 09:52 | 25.11459 | 130.69499 | 39033 ft | 501 kts | 30° |
| 2026-04-21 09:53 | 25.17191 | 130.73872 | 39032 ft | 502 kts | 30° |
| 2026-04-21 09:53 | 25.22936 | 130.78261 | 39032 ft | 503 kts | 30° |
| 2026-04-21 09:54 | 25.28746 | 130.82709 | 39035 ft | 503 kts | 30° |
| 2026-04-21 09:54 | 25.34504 | 130.87122 | 39032 ft | 503 kts | 30° |
| 2026-04-21 09:55 | 25.40317 | 130.91580 | 39032 ft | 502 kts | 30° |
| 2026-04-21 09:55 | 25.46072 | 130.95999 | 39032 ft | 501 kts | 30° |
| 2026-04-21 09:56 | 25.51827 | 131.00421 | 39033 ft | 501 kts | 30° |
| 2026-04-21 09:56 | 25.57600 | 131.04860 | 39033 ft | 502 kts | 30° |
| 2026-04-21 09:57 | 25.63342 | 131.09283 | 39031 ft | 501 kts | 30° |
| 2026-04-21 09:57 | 25.69126 | 131.13742 | 39033 ft | 502 kts | 30° |
| 2026-04-21 09:58 | 25.74857 | 131.18167 | 39034 ft | 502 kts | 30° |
| 2026-04-21 09:58 | 25.80656 | 131.22649 | 39038 ft | 501 kts | 30° |
| 2026-04-21 09:59 | 25.86315 | 131.27147 | 39040 ft | 503 kts | 33° |
| 2026-04-21 09:59 | 25.91681 | 131.31949 | 39039 ft | 504 kts | 34° |
| 2026-04-21 10:00 | 25.97141 | 131.36916 | 39038 ft | 505 kts | 34° |
| 2026-04-21 10:00 | 26.02587 | 131.41866 | 39037 ft | 504 kts | 34° |
| 2026-04-21 10:01 | 26.08054 | 131.46828 | 39036 ft | 505 kts | 34° |
| 2026-04-21 10:01 | 26.13543 | 131.51817 | 39032 ft | 504 kts | 34° |
| 2026-04-21 10:02 | 26.21718 | 131.59251 | 39036 ft | 504 kts | 34° |
| 2026-04-21 10:03 | 26.27174 | 131.64224 | 39040 ft | 503 kts | 34° |
| 2026-04-21 10:03 | 26.32592 | 131.69168 | 39040 ft | 503 kts | 35° |
| 2026-04-21 10:04 | 26.38001 | 131.74110 | 39036 ft | 502 kts | 34° |
| 2026-04-21 10:04 | 26.43415 | 131.79060 | 39043 ft | 502 kts | 34° |
| 2026-04-21 10:05 | 26.48854 | 131.84039 | 39038 ft | 503 kts | 35° |
| 2026-04-21 10:05 | 26.54277 | 131.89014 | 39053 ft | 502 kts | 34° |
| 2026-04-21 10:06 | 26.59696 | 131.93991 | 39055 ft | 500 kts | 34° |
| 2026-04-21 10:06 | 26.65097 | 131.98956 | 39045 ft | 499 kts | 34° |
| 2026-04-21 10:07 | 26.70468 | 132.03897 | 39048 ft | 500 kts | 34° |
| 2026-04-21 10:07 | 26.75871 | 132.08878 | 39050 ft | 500 kts | 34° |
| 2026-04-21 10:08 | 26.81249 | 132.13838 | 39051 ft | 500 kts | 34° |
| 2026-04-21 10:08 | 26.86602 | 132.18784 | 39050 ft | 500 kts | 34° |
| 2026-04-21 10:09 | 26.91998 | 132.23778 | 39052 ft | 500 kts | 34° |
| 2026-04-21 10:09 | 26.97360 | 132.28743 | 39051 ft | 499 kts | 34° |
| 2026-04-21 10:10 | 27.02742 | 132.33737 | 39050 ft | 499 kts | 34° |
| 2026-04-21 10:10 | 27.08117 | 132.38727 | 39057 ft | 499 kts | 34° |
| 2026-04-21 10:11 | 27.13496 | 132.43727 | 39055 ft | 500 kts | 34° |
| 2026-04-21 10:11 | 27.18864 | 132.48726 | 39054 ft | 500 kts | 34° |
| 2026-04-21 10:12 | 27.24219 | 132.53719 | 39054 ft | 500 kts | 34° |
| 2026-04-21 10:12 | 27.29557 | 132.58701 | 39053 ft | 500 kts | 34° |
| 2026-04-21 10:13 | 27.34914 | 132.63707 | 39051 ft | 500 kts | 34° |
| 2026-04-21 10:13 | 27.40263 | 132.68713 | 39044 ft | 500 kts | 34° |
| 2026-04-21 10:14 | 27.45649 | 132.73761 | 39043 ft | 501 kts | 34° |
| 2026-04-21 10:14 | 27.51008 | 132.78787 | 39043 ft | 502 kts | 34° |
| 2026-04-21 10:15 | 27.56347 | 132.83807 | 39043 ft | 502 kts | 34° |
| 2026-04-21 10:15 | 27.61731 | 132.88869 | 39039 ft | 501 kts | 34° |
| 2026-04-21 10:16 | 27.67081 | 132.93912 | 39040 ft | 501 kts | 34° |
| 2026-04-21 10:16 | 27.72423 | 132.98950 | 39041 ft | 501 kts | 34° |
| 2026-04-21 10:17 | 27.77761 | 133.03989 | 39037 ft | 501 kts | 34° |
| 2026-04-21 10:17 | 27.83119 | 133.09055 | 39034 ft | 502 kts | 34° |
| 2026-04-21 10:18 | 27.88449 | 133.14102 | 39034 ft | 501 kts | 34° |
| 2026-04-21 10:18 | 27.93808 | 133.19214 | 39029 ft | 503 kts | 34° |
| 2026-04-21 10:19 | 27.99141 | 133.24321 | 39030 ft | 502 kts | 34° |
| 2026-04-21 10:19 | 28.04458 | 133.29408 | 39033 ft | 503 kts | 34° |
| 2026-04-21 10:20 | 28.09821 | 133.34543 | 39038 ft | 503 kts | 34° |
| 2026-04-21 10:20 | 28.15151 | 133.39658 | 39034 ft | 502 kts | 34° |
| 2026-04-21 10:21 | 28.20462 | 133.44760 | 39034 ft | 502 kts | 34° |
| 2026-04-21 10:21 | 28.25801 | 133.49896 | 39042 ft | 504 kts | 34° |
| 2026-04-21 10:22 | 28.31151 | 133.55051 | 39041 ft | 504 kts | 34° |
| 2026-04-21 10:22 | 28.36517 | 133.60225 | 39042 ft | 504 kts | 34° |
| 2026-04-21 10:23 | 28.41849 | 133.65378 | 39039 ft | 504 kts | 35° |
| 2026-04-21 10:23 | 28.47184 | 133.70537 | 39045 ft | 505 kts | 35° |
| 2026-04-21 10:24 | 28.52513 | 133.75696 | 39044 ft | 505 kts | 35° |
| 2026-04-21 10:24 | 28.57856 | 133.80881 | 39041 ft | 504 kts | 35° |
| 2026-04-21 10:25 | 28.63212 | 133.86083 | 39045 ft | 505 kts | 35° |
| 2026-04-21 10:25 | 28.68524 | 133.91257 | 39043 ft | 506 kts | 35° |
| 2026-04-21 10:26 | 28.73884 | 133.96478 | 39044 ft | 506 kts | 35° |
| 2026-04-21 10:26 | 28.79276 | 134.01743 | 39043 ft | 507 kts | 35° |
| 2026-04-21 10:27 | 28.84638 | 134.06984 | 39047 ft | 506 kts | 35° |
| 2026-04-21 10:27 | 28.89946 | 134.12177 | 39047 ft | 505 kts | 35° |
| 2026-04-21 10:28 | 28.95280 | 134.17401 | 39047 ft | 505 kts | 35° |
| 2026-04-21 10:28 | 29.00680 | 134.22697 | 39052 ft | 505 kts | 35° |
| 2026-04-21 10:29 | 29.06014 | 134.27943 | 39058 ft | 504 kts | 36° |
| 2026-04-21 10:29 | 29.11337 | 134.33179 | 39062 ft | 505 kts | 36° |
| 2026-04-21 10:30 | 29.16638 | 134.38406 | 39061 ft | 505 kts | 36° |
| 2026-04-21 10:30 | 29.21977 | 134.43675 | 39062 ft | 507 kts | 35° |
| 2026-04-21 10:31 | 29.27323 | 134.48959 | 39057 ft | 505 kts | 35° |
| 2026-04-21 10:31 | 29.32680 | 134.54260 | 39057 ft | 506 kts | 35° |
| 2026-04-21 10:32 | 29.38030 | 134.59561 | 39059 ft | 506 kts | 35° |
| 2026-04-21 10:32 | 29.43407 | 134.64897 | 39060 ft | 508 kts | 35° |
| 2026-04-21 10:33 | 29.48782 | 134.70239 | 39054 ft | 507 kts | 36° |
| 2026-04-21 10:33 | 29.54114 | 134.75551 | 39054 ft | 507 kts | 36° |
| 2026-04-21 10:34 | 29.59488 | 134.80907 | 39061 ft | 508 kts | 36° |
| 2026-04-21 10:34 | 29.64815 | 134.86221 | 39059 ft | 508 kts | 36° |
| 2026-04-21 10:35 | 29.70214 | 134.91621 | 39063 ft | 509 kts | 36° |
| 2026-04-21 10:35 | 29.75612 | 134.97025 | 39065 ft | 510 kts | 36° |
| 2026-04-21 10:36 | 29.80988 | 135.02417 | 39065 ft | 509 kts | 36° |
| 2026-04-21 10:36 | 29.86347 | 135.07797 | 39064 ft | 509 kts | 36° |
| 2026-04-21 10:37 | 29.91695 | 135.13181 | 39066 ft | 506 kts | 36° |
| 2026-04-21 10:37 | 29.97066 | 135.18587 | 39067 ft | 507 kts | 36° |
| 2026-04-21 10:38 | 30.02409 | 135.23975 | 39063 ft | 508 kts | 36° |
| 2026-04-21 10:38 | 30.07693 | 135.29312 | 39057 ft | 507 kts | 36° |
| 2026-04-21 10:39 | 30.13030 | 135.34709 | 39049 ft | 507 kts | 35° |
| 2026-04-21 10:39 | 30.18366 | 135.39993 | 39050 ft | 507 kts | 34° |
| 2026-04-21 10:40 | 30.23743 | 135.45294 | 39046 ft | 506 kts | 34° |
| 2026-04-21 10:40 | 30.29124 | 135.50607 | 39047 ft | 506 kts | 34° |
| 2026-04-21 10:41 | 30.34474 | 135.55905 | 39045 ft | 506 kts | 34° |
| 2026-04-21 10:41 | 30.39834 | 135.61221 | 39048 ft | 506 kts | 34° |
| 2026-04-21 10:42 | 30.45186 | 135.66540 | 39046 ft | 507 kts | 34° |
| 2026-04-21 10:42 | 30.50562 | 135.71890 | 39046 ft | 506 kts | 34° |
| 2026-04-21 10:43 | 30.55903 | 135.77214 | 39051 ft | 506 kts | 34° |
| 2026-04-21 10:43 | 30.61254 | 135.82556 | 39051 ft | 506 kts | 34° |
| 2026-04-21 10:44 | 30.66602 | 135.87901 | 39054 ft | 505 kts | 34° |
| 2026-04-21 10:44 | 30.71912 | 135.93219 | 39047 ft | 504 kts | 34° |
| 2026-04-21 10:45 | 30.77276 | 135.98593 | 39051 ft | 506 kts | 34° |
| 2026-04-21 10:45 | 30.82600 | 136.03946 | 39050 ft | 505 kts | 33° |
| 2026-04-21 10:46 | 30.87918 | 136.09291 | 39051 ft | 504 kts | 34° |
| 2026-04-21 10:46 | 30.93222 | 136.14633 | 39051 ft | 506 kts | 34° |
| 2026-04-21 10:47 | 30.98548 | 136.20004 | 39051 ft | 507 kts | 34° |
| 2026-04-21 10:47 | 31.03885 | 136.25400 | 39057 ft | 506 kts | 33° |
| 2026-04-21 10:48 | 31.09184 | 136.30762 | 39055 ft | 506 kts | 33° |
| 2026-04-21 10:48 | 31.14520 | 136.36169 | 39055 ft | 507 kts | 33° |
| 2026-04-21 10:49 | 31.19850 | 136.41579 | 39057 ft | 506 kts | 33° |
| 2026-04-21 10:49 | 31.25192 | 136.47009 | 39058 ft | 507 kts | 33° |
| 2026-04-21 10:50 | 31.30493 | 136.52405 | 39055 ft | 508 kts | 33° |
| 2026-04-21 10:50 | 31.35835 | 136.57851 | 39054 ft | 508 kts | 33° |
| 2026-04-21 10:51 | 31.41138 | 136.63269 | 39055 ft | 508 kts | 33° |
| 2026-04-21 10:51 | 31.46462 | 136.68720 | 39056 ft | 509 kts | 34° |
| 2026-04-21 10:52 | 31.51778 | 136.74185 | 39053 ft | 510 kts | 34° |
| 2026-04-21 10:52 | 31.57137 | 136.79704 | 39050 ft | 509 kts | 33° |
| 2026-04-21 10:53 | 31.62444 | 136.85175 | 39054 ft | 510 kts | 33° |
| 2026-04-21 10:53 | 31.67770 | 136.90671 | 39055 ft | 509 kts | 34° |
| 2026-04-21 10:54 | 31.73106 | 136.96187 | 39057 ft | 511 kts | 33° |
| 2026-04-21 10:54 | 31.78442 | 137.01710 | 39051 ft | 510 kts | 33° |
| 2026-04-21 10:55 | 31.83751 | 137.07217 | 39053 ft | 510 kts | 33° |
| 2026-04-21 10:55 | 31.89050 | 137.12721 | 39054 ft | 511 kts | 33° |
| 2026-04-21 10:56 | 31.94383 | 137.18268 | 39050 ft | 510 kts | 33° |
| 2026-04-21 10:56 | 31.99710 | 137.23817 | 39056 ft | 512 kts | 33° |
| 2026-04-21 10:57 | 32.05089 | 137.29436 | 39055 ft | 512 kts | 33° |
| 2026-04-21 10:57 | 32.10495 | 137.35084 | 39052 ft | 512 kts | 32° |
| 2026-04-21 10:58 | 32.15597 | 137.40431 | 39051 ft | 511 kts | 32° |
| 2026-04-21 10:58 | 32.20728 | 137.45801 | 39049 ft | 515 kts | 33° |
| 2026-04-21 10:59 | 32.26092 | 137.51443 | 39049 ft | 512 kts | 33° |
| 2026-04-21 10:59 | 32.31483 | 137.57114 | 39056 ft | 515 kts | 33° |
| 2026-04-21 11:00 | 32.36924 | 137.62846 | 39051 ft | 515 kts | 32° |
| 2026-04-21 11:00 | 32.42236 | 137.68454 | 39044 ft | 515 kts | 33° |
| 2026-04-21 11:01 | 32.47670 | 137.74199 | 39047 ft | 516 kts | 33° |
| 2026-04-21 11:01 | 32.53081 | 137.79930 | 39048 ft | 517 kts | 33° |
| 2026-04-21 11:02 | 32.61145 | 137.88489 | 39041 ft | 518 kts | 33° |
| 2026-04-21 11:02 | 32.66485 | 137.94177 | 39045 ft | 516 kts | 33° |
| 2026-04-21 11:03 | 32.71905 | 137.99945 | 39041 ft | 517 kts | 33° |
| 2026-04-21 11:03 | 32.77283 | 138.05675 | 39040 ft | 520 kts | 33° |
| 2026-04-21 11:04 | 32.82681 | 138.11453 | 39038 ft | 518 kts | 33° |
| 2026-04-21 11:04 | 32.88020 | 138.17174 | 39027 ft | 517 kts | 34° |
| 2026-04-21 11:05 | 32.93324 | 138.23189 | 39025 ft | 520 kts | 36° |
| 2026-04-21 11:05 | 32.98571 | 138.29265 | 39029 ft | 519 kts | 35° |
| 2026-04-21 11:06 | 33.03832 | 138.35323 | 39024 ft | 522 kts | 36° |
| 2026-04-21 11:06 | 33.09078 | 138.41367 | 38881 ft | 520 kts | 35° |
| 2026-04-21 11:07 | 33.11728 | 138.44421 | 38118 ft | 524 kts | 35° |
| 2026-04-21 11:07 | 33.13484 | 138.46442 | 37404 ft | 529 kts | 35° |
| 2026-04-21 11:07 | 33.16228 | 138.49597 | 36426 ft | 534 kts | 36° |
| 2026-04-21 11:07 | 33.18938 | 138.52727 | 35811 ft | 532 kts | 36° |
| 2026-04-21 11:08 | 33.21544 | 138.55748 | 35296 ft | 528 kts | 36° |
| 2026-04-21 11:08 | 33.24171 | 138.58791 | 34745 ft | 525 kts | 36° |
| 2026-04-21 11:08 | 33.26799 | 138.61838 | 34226 ft | 522 kts | 36° |
| 2026-04-21 11:08 | 33.29403 | 138.64867 | 33859 ft | 515 kts | 36° |
| 2026-04-21 11:09 | 33.31978 | 138.67854 | 33519 ft | 510 kts | 37° |
| 2026-04-21 11:09 | 33.34507 | 138.70778 | 33198 ft | 514 kts | 36° |
| 2026-04-21 11:09 | 33.37098 | 138.73789 | 32841 ft | 513 kts | 37° |
| 2026-04-21 11:09 | 33.39638 | 138.76737 | 32490 ft | 513 kts | 37° |
| 2026-04-21 11:10 | 33.42200 | 138.79724 | 32124 ft | 512 kts | 37° |
| 2026-04-21 11:10 | 33.44722 | 138.82657 | 31758 ft | 512 kts | 37° |
| 2026-04-21 11:10 | 33.47277 | 138.85635 | 31367 ft | 512 kts | 37° |
| 2026-04-21 11:10 | 33.49819 | 138.88605 | 30984 ft | 511 kts | 37° |
| 2026-04-21 11:11 | 33.52350 | 138.91562 | 30590 ft | 508 kts | 37° |
| 2026-04-21 11:11 | 33.54867 | 138.94508 | 30189 ft | 505 kts | 37° |
| 2026-04-21 11:11 | 33.57379 | 138.97444 | 29785 ft | 500 kts | 37° |
| 2026-04-21 11:11 | 33.59868 | 139.00360 | 29370 ft | 496 kts | 37° |
| 2026-04-21 11:12 | 33.62376 | 139.03296 | 28949 ft | 493 kts | 37° |
| 2026-04-21 11:12 | 33.64830 | 139.06180 | 28607 ft | 488 kts | 37° |
| 2026-04-21 11:12 | 33.67273 | 139.09049 | 28371 ft | 490 kts | 37° |
| 2026-04-21 11:12 | 33.69688 | 139.11883 | 28137 ft | 488 kts | 37° |
| 2026-04-21 11:13 | 33.72129 | 139.14754 | 27904 ft | 487 kts | 37° |
| 2026-04-21 11:13 | 33.74542 | 139.17587 | 27671 ft | 487 kts | 37° |
| 2026-04-21 11:13 | 33.76986 | 139.20467 | 27430 ft | 485 kts | 37° |
| 2026-04-21 11:13 | 33.79420 | 139.23335 | 27186 ft | 484 kts | 37° |
| 2026-04-21 11:14 | 33.81864 | 139.26216 | 26940 ft | 483 kts | 37° |
| 2026-04-21 11:14 | 33.84309 | 139.29099 | 26690 ft | 482 kts | 37° |
| 2026-04-21 11:14 | 33.86743 | 139.31973 | 26444 ft | 481 kts | 37° |
| 2026-04-21 11:14 | 33.89104 | 139.34769 | 26194 ft | 479 kts | 37° |
| 2026-04-21 11:15 | 33.91484 | 139.37585 | 25863 ft | 477 kts | 37° |
| 2026-04-21 11:15 | 33.93854 | 139.40395 | 25490 ft | 474 kts | 37° |
| 2026-04-21 11:15 | 33.96178 | 139.43146 | 25092 ft | 471 kts | 37° |
| 2026-04-21 11:15 | 33.98532 | 139.45935 | 24667 ft | 469 kts | 37° |
| 2026-04-21 11:16 | 34.00872 | 139.48714 | 24271 ft | 465 kts | 37° |
| 2026-04-21 11:16 | 34.03166 | 139.51436 | 23879 ft | 462 kts | 37° |
| 2026-04-21 11:16 | 34.05578 | 139.54004 | 23388 ft | 449 kts | 24° |
| 2026-04-21 11:16 | 34.08367 | 139.55440 | 22958 ft | 420 kts | 2° |
| 2026-04-21 11:17 | 34.11149 | 139.55541 | 22528 ft | 393 kts | 341° |
| 2026-04-21 11:17 | 34.13572 | 139.54910 | 22175 ft | 385 kts | 337° |
| 2026-04-21 11:17 | 34.16204 | 139.54179 | 21828 ft | 382 kts | 338° |
| 2026-04-21 11:17 | 34.18876 | 139.53496 | 21473 ft | 380 kts | 339° |
| 2026-04-21 11:18 | 34.21380 | 139.52898 | 21118 ft | 378 kts | 339° |
| 2026-04-21 11:18 | 34.23963 | 139.52304 | 20746 ft | 375 kts | 339° |
| 2026-04-21 11:18 | 34.26522 | 139.51720 | 20360 ft | 374 kts | 339° |
| 2026-04-21 11:18 | 34.29047 | 139.51141 | 19951 ft | 373 kts | 340° |
| 2026-04-21 11:19 | 34.31613 | 139.50552 | 19570 ft | 370 kts | 340° |
| 2026-04-21 11:19 | 34.34143 | 139.49974 | 19218 ft | 367 kts | 340° |
| 2026-04-21 11:19 | 34.36625 | 139.49405 | 18872 ft | 365 kts | 340° |
| 2026-04-21 11:19 | 34.39104 | 139.48836 | 18509 ft | 362 kts | 340° |
| 2026-04-21 11:20 | 34.41600 | 139.48262 | 18120 ft | 361 kts | 340° |
| 2026-04-21 11:20 | 34.44077 | 139.47688 | 17707 ft | 361 kts | 340° |
| 2026-04-21 11:20 | 34.46532 | 139.47122 | 17331 ft | 359 kts | 340° |
| 2026-04-21 11:20 | 34.48998 | 139.46553 | 16972 ft | 357 kts | 340° |
| 2026-04-21 11:21 | 34.51433 | 139.45991 | 16610 ft | 355 kts | 341° |
| 2026-04-21 11:21 | 34.53854 | 139.45430 | 16256 ft | 353 kts | 341° |
| 2026-04-21 11:21 | 34.56258 | 139.44875 | 15921 ft | 350 kts | 341° |
| 2026-04-21 11:21 | 34.58633 | 139.44325 | 15586 ft | 347 kts | 341° |
| 2026-04-21 11:22 | 34.61023 | 139.43771 | 15266 ft | 344 kts | 342° |
| 2026-04-21 11:22 | 34.63344 | 139.43233 | 14963 ft | 341 kts | 342° |
| 2026-04-21 11:22 | 34.65676 | 139.42694 | 14659 ft | 337 kts | 342° |
| 2026-04-21 11:22 | 34.68010 | 139.42252 | 14315 ft | 340 kts | 352° |
| 2026-04-21 11:23 | 34.70363 | 139.42752 | 13976 ft | 354 kts | 15° |
| 2026-04-21 11:23 | 34.72483 | 139.44376 | 13652 ft | 367 kts | 37° |
| 2026-04-21 11:23 | 34.74024 | 139.46881 | 13344 ft | 375 kts | 54° |
| 2026-04-21 11:23 | 34.75335 | 139.49629 | 13008 ft | 373 kts | 54° |
| 2026-04-21 11:24 | 34.76631 | 139.52350 | 12664 ft | 370 kts | 55° |
| 2026-04-21 11:24 | 34.77922 | 139.55041 | 12296 ft | 369 kts | 55° |
| 2026-04-21 11:24 | 34.79227 | 139.57742 | 11941 ft | 367 kts | 55° |
| 2026-04-21 11:24 | 34.80525 | 139.60422 | 11578 ft | 365 kts | 55° |
| 2026-04-21 11:25 | 34.81805 | 139.63058 | 11229 ft | 362 kts | 56° |
| 2026-04-21 11:25 | 34.83078 | 139.65675 | 10867 ft | 360 kts | 57° |
| 2026-04-21 11:25 | 34.84360 | 139.68317 | 10483 ft | 358 kts | 57° |
| 2026-04-21 11:25 | 34.85623 | 139.70918 | 10210 ft | 352 kts | 57° |
| 2026-04-21 11:26 | 34.86838 | 139.73428 | 10161 ft | 339 kts | 57° |
| 2026-04-21 11:26 | 34.88013 | 139.75854 | 10102 ft | 328 kts | 57° |
| 2026-04-21 11:26 | 34.89147 | 139.78200 | 10065 ft | 316 kts | 57° |
| 2026-04-21 11:26 | 34.90250 | 139.80476 | 10032 ft | 305 kts | 57° |
| 2026-04-21 11:27 | 34.91330 | 139.82706 | 9798 ft | 302 kts | 57° |
| 2026-04-21 11:27 | 34.92393 | 139.84900 | 9504 ft | 301 kts | 57° |
| 2026-04-21 11:27 | 34.93492 | 139.87087 | 9213 ft | 298 kts | 50° |
| 2026-04-21 11:27 | 34.95093 | 139.88632 | 8900 ft | 288 kts | 18° |
| 2026-04-21 11:28 | 34.97078 | 139.88902 | 8647 ft | 279 kts | 349° |
| 2026-04-21 11:28 | 34.98920 | 139.88310 | 8410 ft | 275 kts | 343° |
| 2026-04-21 11:28 | 35.00777 | 139.87676 | 8138 ft | 274 kts | 344° |
| 2026-04-21 11:28 | 35.02609 | 139.87071 | 7870 ft | 273 kts | 345° |
| 2026-04-21 11:29 | 35.04453 | 139.86475 | 7601 ft | 272 kts | 345° |
| 2026-04-21 11:29 | 35.06283 | 139.85892 | 7335 ft | 270 kts | 345° |
| 2026-04-21 11:29 | 35.08139 | 139.85300 | 7068 ft | 269 kts | 346° |
| 2026-04-21 11:29 | 35.09963 | 139.84721 | 6801 ft | 268 kts | 346° |
| 2026-04-21 11:30 | 35.11784 | 139.84143 | 6547 ft | 266 kts | 346° |
| 2026-04-21 11:30 | 35.13573 | 139.83575 | 6308 ft | 264 kts | 346° |
| 2026-04-21 11:30 | 35.15369 | 139.83006 | 6080 ft | 262 kts | 346° |
| 2026-04-21 11:30 | 35.17088 | 139.82460 | 5997 ft | 254 kts | 347° |
| 2026-04-21 11:31 | 35.18771 | 139.81926 | 5993 ft | 243 kts | 347° |
| 2026-04-21 11:31 | 35.20402 | 139.81409 | 5990 ft | 232 kts | 347° |
| 2026-04-21 11:31 | 35.21852 | 139.80949 | 5819 ft | 231 kts | 347° |
| 2026-04-21 11:31 | 35.23418 | 139.80450 | 5516 ft | 234 kts | 347° |
| 2026-04-21 11:32 | 35.25013 | 139.79944 | 5192 ft | 238 kts | 347° |
| 2026-04-21 11:32 | 35.26586 | 139.79442 | 4899 ft | 240 kts | 348° |
| 2026-04-21 11:32 | 35.28249 | 139.78914 | 4600 ft | 243 kts | 348° |
| 2026-04-21 11:32 | 35.29895 | 139.78391 | 4313 ft | 245 kts | 348° |
| 2026-04-21 11:33 | 35.31579 | 139.78050 | 3985 ft | 244 kts | 8° |
| 2026-04-21 11:33 | 35.33146 | 139.78845 | 3756 ft | 239 kts | 36° |
| 2026-04-21 11:33 | 35.34470 | 139.80129 | 3584 ft | 236 kts | 39° |
| 2026-04-21 11:33 | 35.35729 | 139.81392 | 3384 ft | 234 kts | 38° |
| 2026-04-21 11:34 | 35.37005 | 139.82631 | 3221 ft | 231 kts | 37° |
| 2026-04-21 11:34 | 35.38292 | 139.83835 | 3038 ft | 228 kts | 36° |
| 2026-04-21 11:34 | 35.39572 | 139.85010 | 2860 ft | 226 kts | 36° |
| 2026-04-21 11:34 | 35.40854 | 139.86174 | 2632 ft | 226 kts | 36° |
| 2026-04-21 11:35 | 35.42256 | 139.87041 | 2369 ft | 227 kts | 10° |
| 2026-04-21 11:35 | 35.43866 | 139.87102 | 2121 ft | 229 kts | 0° |
| 2026-04-21 11:35 | 35.45446 | 139.86768 | 2000 ft | 228 kts | 336° |
| 2026-04-21 11:35 | 35.46758 | 139.85672 | 2015 ft | 217 kts | 331° |
| 2026-04-21 11:36 | 35.48019 | 139.84705 | 1956 ft | 198 kts | 337° |
| 2026-04-21 11:36 | 35.49038 | 139.84007 | 1814 ft | 189 kts | 336° |
| 2026-04-21 11:36 | 35.50194 | 139.83209 | 1539 ft | 186 kts | 335° |
| 2026-04-21 11:36 | 35.51324 | 139.82402 | 1266 ft | 183 kts | 334° |